createdAt,value
2018-12-18T00:01:17.416Z,92.78
2018-12-18T00:03:53.104Z,92.78
2018-12-18T00:06:28.744Z,93.20
2018-12-18T00:09:06.360Z,92.69
2018-12-18T00:11:42.050Z,93.28
2018-12-18T00:14:17.678Z,93.86
2018-12-18T00:16:53.452Z,93.41
2018-12-18T00:19:29.005Z,92.85
2018-12-18T00:22:05.007Z,93.47
2018-12-18T00:24:40.753Z,92.62
2018-12-18T00:27:16.357Z,93.13
2018-12-18T00:29:52.060Z,93.27
2018-12-18T00:32:29.331Z,92.92
2018-12-18T00:35:05.577Z,93.14
2018-12-18T00:37:41.210Z,93.39
2018-12-18T00:43:01.493Z,92.52
2018-12-18T00:45:37.133Z,93.29
2018-12-18T00:48:13.012Z,93.17
2018-12-18T00:50:48.651Z,92.49
2018-12-18T00:53:24.392Z,92.65
2018-12-18T00:55:59.977Z,92.84
2018-12-18T00:58:35.636Z,92.02
2018-12-18T01:01:11.436Z,92.53
2018-12-18T01:03:52.712Z,92.88
2018-12-18T01:06:25.647Z,92.16
2018-12-18T01:09:01.269Z,92.49
2018-12-18T01:11:37.023Z,92.36
2018-12-18T01:14:13.409Z,92.91
2018-12-18T01:16:49.010Z,92.29
2018-12-18T01:19:24.698Z,92.31
2018-12-18T01:22:00.460Z,92.39
2018-12-18T01:24:36.161Z,92.67
2018-12-18T01:27:11.897Z,92.96
2018-12-18T01:29:47.546Z,92.65
2018-12-18T01:32:23.425Z,92.58
2018-12-18T01:34:59.036Z,93.13
2018-12-18T01:37:34.978Z,93.37
2018-12-18T01:40:11.385Z,93.27
2018-12-18T01:42:46.935Z,92.61
2018-12-18T01:45:22.520Z,93.60
2018-12-18T01:47:58.255Z,93.02
2018-12-18T01:50:34.143Z,91.90
2018-12-18T01:53:09.774Z,92.58
2018-12-18T01:55:45.587Z,93.26
2018-12-18T01:58:21.332Z,93.15
2018-12-18T02:00:57.100Z,92.57
2018-12-18T02:03:32.791Z,93.27
2018-12-18T02:06:08.895Z,93.50
2018-12-18T02:08:44.559Z,92.36
2018-12-18T02:11:20.380Z,93.33
2018-12-18T02:13:56.365Z,92.45
2018-12-18T02:16:32.093Z,92.56
2018-12-18T02:19:07.788Z,93.13
2018-12-18T02:21:43.452Z,92.94
2018-12-18T02:24:19.079Z,92.57
2018-12-18T02:26:55.747Z,93.37
2018-12-18T02:32:12.980Z,93.36
2018-12-18T02:34:48.604Z,92.40
2018-12-18T02:37:24.491Z,92.06
2018-12-18T02:40:00.133Z,92.30
2018-12-18T02:42:35.799Z,92.38
2018-12-18T02:45:11.871Z,92.37
2018-12-18T02:47:47.505Z,92.23
2018-12-18T02:50:23.043Z,92.67
2018-12-18T02:52:58.720Z,92.96
2018-12-18T02:55:34.476Z,92.42
2018-12-18T02:58:10.160Z,92.14
2018-12-18T03:00:45.866Z,91.67
2018-12-18T03:03:21.637Z,92.15
2018-12-18T03:05:57.405Z,92.45
2018-12-18T03:08:33.085Z,91.79
2018-12-18T03:11:10.945Z,93.19
2018-12-18T03:13:47.715Z,92.77
2018-12-18T03:16:23.964Z,93.23
2018-12-18T03:18:59.648Z,93.69
2018-12-18T03:21:35.442Z,92.78
2018-12-18T03:24:11.194Z,92.61
2018-12-18T03:26:46.849Z,93.56
2018-12-18T03:29:22.808Z,92.94
2018-12-18T03:32:02.402Z,93.55
2018-12-18T03:34:39.046Z,92.97
2018-12-18T03:37:14.666Z,93.84
2018-12-18T03:39:50.416Z,93.21
2018-12-18T03:42:26.180Z,93.73
2018-12-18T03:45:01.789Z,93.04
2018-12-18T03:47:37.480Z,93.57
2018-12-18T03:50:13.186Z,92.94
2018-12-18T03:52:48.802Z,92.76
2018-12-18T03:55:25.447Z,93.78
2018-12-18T03:58:01.605Z,93.20
2018-12-18T04:00:38.570Z,93.79
2018-12-18T04:03:14.254Z,93.98
2018-12-18T04:05:50.094Z,92.44
2018-12-18T04:08:25.778Z,93.23
2018-12-18T04:11:01.534Z,93.23
2018-12-18T04:13:37.161Z,92.11
2018-12-18T04:16:12.957Z,92.30
2018-12-18T04:18:48.729Z,92.08
2018-12-18T04:21:24.282Z,92.11
2018-12-18T04:24:00.007Z,92.88
2018-12-18T04:26:35.728Z,92.12
2018-12-18T04:31:55.605Z,92.93
2018-12-18T04:34:31.341Z,92.40
2018-12-18T04:37:07.035Z,91.35
2018-12-18T04:39:42.762Z,91.62
2018-12-18T04:42:18.485Z,91.52
2018-12-18T04:44:54.133Z,91.69
2018-12-18T04:47:29.752Z,92.42
2018-12-18T04:52:51.816Z,92.39
2018-12-18T04:55:27.493Z,91.79
2018-12-18T04:58:03.345Z,92.16
2018-12-18T05:00:38.879Z,92.15
2018-12-18T05:03:14.622Z,91.64
2018-12-18T05:05:50.501Z,92.29
2018-12-18T05:08:26.140Z,91.70
2018-12-18T05:11:01.816Z,92.66
2018-12-18T05:13:37.432Z,92.19
2018-12-18T05:16:13.169Z,91.84
2018-12-18T05:18:48.896Z,92.40
2018-12-18T05:21:24.455Z,92.87
2018-12-18T05:24:01.664Z,92.72
2018-12-18T05:26:37.220Z,93.20
2018-12-18T05:29:12.860Z,91.90
2018-12-18T05:31:48.468Z,91.70
2018-12-18T05:37:08.616Z,91.63
2018-12-18T05:42:56.752Z,91.30
2018-12-18T05:45:32.428Z,91.95
2018-12-18T05:48:20.078Z,91.13
2018-12-18T05:50:55.870Z,91.03
2018-12-18T05:53:31.579Z,91.46
2018-12-18T05:56:07.384Z,91.28
2018-12-18T05:58:43.112Z,91.92
2018-12-18T06:01:18.728Z,91.86
2018-12-18T06:03:54.484Z,92.19
2018-12-18T06:09:40.311Z,91.71
2018-12-18T06:18:41.454Z,92.25
2018-12-18T06:21:31.449Z,92.78
2018-12-18T06:24:07.254Z,93.05
2018-12-18T06:26:55.584Z,92.73
2018-12-18T06:29:31.304Z,92.88
2018-12-18T06:35:28.692Z,91.59
2018-12-18T06:38:04.787Z,92.48
2018-12-18T06:40:40.558Z,91.31
2018-12-18T06:43:16.449Z,92.86
2018-12-18T06:45:52.286Z,93.08
2018-12-18T06:48:28.488Z,91.99
2018-12-18T06:51:04.315Z,91.72
2018-12-18T06:53:39.966Z,92.13
2018-12-18T06:56:15.717Z,92.27
2018-12-18T06:58:51.552Z,91.53
2018-12-18T07:01:27.336Z,91.16
2018-12-18T07:04:03.261Z,91.77
2018-12-18T07:06:39.005Z,92.25
2018-12-18T07:09:14.669Z,92.27
2018-12-18T07:14:57.833Z,91.27
2018-12-18T07:17:33.630Z,91.33
2018-12-18T07:20:09.887Z,91.57
2018-12-18T07:22:45.916Z,92.19
2018-12-18T07:25:21.684Z,92.64
2018-12-18T07:27:57.558Z,91.36
2018-12-18T07:30:33.302Z,91.13
2018-12-18T07:33:08.882Z,92.62
2018-12-18T07:35:44.946Z,91.38
2018-12-18T07:38:20.779Z,91.31
2018-12-18T07:40:56.434Z,91.56
2018-12-18T07:43:32.161Z,91.98
2018-12-18T07:46:07.763Z,91.56
2018-12-18T07:48:43.549Z,92.44
2018-12-18T07:51:19.696Z,91.29
2018-12-18T07:53:55.434Z,91.31
2018-12-18T07:56:31.115Z,91.91
2018-12-18T07:59:06.986Z,91.21
2018-12-18T08:01:42.877Z,92.71
2018-12-18T08:04:18.629Z,91.70
2018-12-18T08:06:55.091Z,91.57
2018-12-18T08:09:30.840Z,91.58
2018-12-18T08:12:06.609Z,91.43
2018-12-18T08:14:42.949Z,91.86
2018-12-18T08:17:18.961Z,92.48
2018-12-18T08:19:58.062Z,92.52
2018-12-18T08:22:33.850Z,90.19
2018-12-18T08:25:09.606Z,86.66
2018-12-18T08:27:45.305Z,91.07
2018-12-18T08:30:20.938Z,93.16
2018-12-18T08:32:56.667Z,90.80
2018-12-18T08:35:36.477Z,89.89
2018-12-18T08:38:10.073Z,88.02
2018-12-18T08:40:45.753Z,87.24
2018-12-18T08:43:21.364Z,87.84
2018-12-18T08:45:57.285Z,87.97
2018-12-18T08:48:32.994Z,88.47
2018-12-18T08:51:08.652Z,90.04
2018-12-18T08:53:44.407Z,86.10
2018-12-18T08:56:20.107Z,85.22
2018-12-18T08:58:56.003Z,87.00
2018-12-18T09:01:31.836Z,85.49
2018-12-18T09:04:07.652Z,85.80
2018-12-18T09:06:43.363Z,87.33
2018-12-18T09:09:19.397Z,88.01
2018-12-18T09:11:55.240Z,88.03
2018-12-18T09:14:31.084Z,88.08
2018-12-18T09:17:08.538Z,87.99
2018-12-18T09:19:44.213Z,87.21
2018-12-18T09:22:19.954Z,86.68
2018-12-18T09:24:55.629Z,86.21
2018-12-18T09:27:31.288Z,85.92
2018-12-18T09:30:10.470Z,85.37
2018-12-18T09:32:46.295Z,84.24
2018-12-18T09:35:21.929Z,83.74
2018-12-18T09:38:02.572Z,83.41
2018-12-18T09:40:43.326Z,79.34
2018-12-18T09:43:24.348Z,79.17
2018-12-18T09:46:00.127Z,72.20
2018-12-18T09:48:35.850Z,74.75
2018-12-18T09:51:11.634Z,72.57
2018-12-18T09:53:47.384Z,73.33
2018-12-18T09:56:23.080Z,72.03
2018-12-18T09:58:59.721Z,72.08
2018-12-18T10:01:35.510Z,77.00
2018-12-18T10:04:11.336Z,75.28
2018-12-18T10:06:47.212Z,73.96
2018-12-18T10:09:22.895Z,70.86
2018-12-18T10:11:58.641Z,73.04
2018-12-18T10:14:34.334Z,71.25
2018-12-18T10:20:22.701Z,71.69
2018-12-18T10:22:58.347Z,64.01
2018-12-18T10:25:34.392Z,61.71
2018-12-18T10:28:10.712Z,61.33
2018-12-18T10:30:46.506Z,63.00
2018-12-18T10:33:22.319Z,66.41
2018-12-18T10:36:02.980Z,68.00
2018-12-18T10:38:35.745Z,69.37
2018-12-18T10:41:11.468Z,68.56
2018-12-18T10:43:48.303Z,69.11
2018-12-18T10:46:23.942Z,65.91
2018-12-18T10:48:59.649Z,64.63
2018-12-18T10:51:35.528Z,61.31
2018-12-18T10:54:11.249Z,65.00
2018-12-18T10:56:47.148Z,65.96
2018-12-18T10:59:22.937Z,64.15
2018-12-18T11:02:00.770Z,61.41
2018-12-18T11:04:37.175Z,62.07
2018-12-18T11:07:12.850Z,58.30
2018-12-18T11:09:48.475Z,63.63
2018-12-18T11:12:29.078Z,64.48
2018-12-18T11:15:05.399Z,67.34
2018-12-18T11:17:41.077Z,61.35
2018-12-18T11:20:17.081Z,64.11
2018-12-18T11:22:52.706Z,63.10
2018-12-18T11:25:28.549Z,64.06
2018-12-18T11:28:04.321Z,63.93
2018-12-18T11:30:40.063Z,62.08
2018-12-18T11:33:15.785Z,63.37
2018-12-18T11:35:52.204Z,64.45
2018-12-18T11:38:28.030Z,59.63
2018-12-18T11:41:03.816Z,61.76
2018-12-18T11:43:39.416Z,61.07
2018-12-18T11:46:15.191Z,65.56
2018-12-18T11:48:50.787Z,64.78
2018-12-18T11:51:26.626Z,65.53
2018-12-18T11:54:02.325Z,63.88
2018-12-18T11:56:38.342Z,61.26
2018-12-18T11:59:15.381Z,62.84
2018-12-18T12:01:51.780Z,58.75
2018-12-18T12:04:27.368Z,62.28
2018-12-18T12:07:03.016Z,61.86
2018-12-18T12:09:38.760Z,62.62
2018-12-18T12:12:14.550Z,60.07
2018-12-18T12:14:50.807Z,58.96
2018-12-18T12:17:27.720Z,60.87
2018-12-18T12:20:03.568Z,59.41
2018-12-18T12:22:39.312Z,60.41
2018-12-18T12:25:15.169Z,59.51
2018-12-18T12:27:55.979Z,56.67
2018-12-18T12:30:31.794Z,55.78
2018-12-18T12:33:08.359Z,55.62
2018-12-18T12:35:44.050Z,58.80
2018-12-18T12:38:20.036Z,56.58
2018-12-18T12:40:55.831Z,57.40
2018-12-18T12:43:32.431Z,59.10
2018-12-18T12:46:08.520Z,59.15
2018-12-18T12:48:49.212Z,59.33
2018-12-18T12:51:25.617Z,57.80
2018-12-18T12:54:01.415Z,57.75
2018-12-18T12:56:37.273Z,61.18
2018-12-18T12:59:12.990Z,58.54
2018-12-18T13:01:48.807Z,58.30
2018-12-18T13:04:24.474Z,57.25
2018-12-18T13:07:00.607Z,55.68
2018-12-18T13:09:36.278Z,57.30
2018-12-18T13:12:12.383Z,58.13
2018-12-18T13:14:48.177Z,60.07
2018-12-18T13:17:23.945Z,64.08
2018-12-18T13:19:59.711Z,64.54
2018-12-18T13:22:36.380Z,67.66
2018-12-18T13:25:12.164Z,70.83
2018-12-18T13:27:47.867Z,75.60
2018-12-18T13:30:23.556Z,76.02
2018-12-18T13:32:59.290Z,76.00
2018-12-18T13:35:35.292Z,78.60
2018-12-18T13:38:11.397Z,79.66
2018-12-18T13:40:47.850Z,81.29
2018-12-18T13:43:24.439Z,81.78
2018-12-18T13:46:00.146Z,84.13
2018-12-18T13:48:35.984Z,84.92
2018-12-18T13:51:11.648Z,83.92
2018-12-18T13:53:47.406Z,84.63
2018-12-18T13:56:23.096Z,83.50
2018-12-18T13:59:00.377Z,84.56
2018-12-18T14:01:36.408Z,86.06
2018-12-18T14:04:12.292Z,86.18
2018-12-18T14:06:49.781Z,86.99
2018-12-18T14:09:25.690Z,87.54
2018-12-18T14:12:01.381Z,85.55
2018-12-18T14:14:37.074Z,85.25
2018-12-18T14:17:12.733Z,85.42
2018-12-18T14:19:48.412Z,86.26
2018-12-18T14:22:24.223Z,86.19
2018-12-18T14:24:59.942Z,87.36
2018-12-18T14:27:35.547Z,87.10
2018-12-18T14:30:11.650Z,86.36
2018-12-18T14:32:47.384Z,85.85
2018-12-18T14:35:23.036Z,86.43
2018-12-18T14:37:58.795Z,86.37
2018-12-18T14:40:36.185Z,87.31
2018-12-18T14:43:12.144Z,88.17
2018-12-18T14:45:47.959Z,87.80
2018-12-18T14:48:23.665Z,88.47
2018-12-18T14:50:59.357Z,88.06
2018-12-18T14:53:35.026Z,88.36
2018-12-18T14:56:10.672Z,88.88
2018-12-18T14:58:46.370Z,88.50
2018-12-18T15:01:21.950Z,89.66
2018-12-18T15:03:57.713Z,88.85
2018-12-18T15:06:33.334Z,89.33
2018-12-18T15:09:09.292Z,90.15
2018-12-18T15:11:45.099Z,90.15
2018-12-18T15:14:20.787Z,90.34
2018-12-18T15:16:56.472Z,90.64
2018-12-18T15:19:32.172Z,90.29
2018-12-18T15:22:07.818Z,90.87
2018-12-18T15:24:43.544Z,90.37
2018-12-18T15:27:19.255Z,90.68
2018-12-18T15:29:55.054Z,90.08
2018-12-18T15:32:30.947Z,90.84
2018-12-18T15:35:06.982Z,91.02
2018-12-18T15:37:43.247Z,90.66
2018-12-18T15:40:19.017Z,91.17
2018-12-18T15:42:54.566Z,89.89
2018-12-18T15:45:35.224Z,90.12
2018-12-18T15:48:11.021Z,90.41
2018-12-18T15:50:46.879Z,90.61
2018-12-18T15:53:22.479Z,90.75
2018-12-18T15:55:58.222Z,90.92
2018-12-18T15:58:34.148Z,91.19
2018-12-18T16:01:09.791Z,91.13
2018-12-18T16:03:45.495Z,90.73
2018-12-18T16:06:21.273Z,91.14
2018-12-18T16:08:56.903Z,90.81
2018-12-18T16:11:32.531Z,90.88
2018-12-18T16:14:08.373Z,91.71
2018-12-18T16:16:44.241Z,90.77
2018-12-18T16:19:21.112Z,91.42
2018-12-18T16:21:56.822Z,92.22
2018-12-18T16:24:32.533Z,91.49
2018-12-18T16:27:08.385Z,93.24
2018-12-18T16:32:25.496Z,92.42
2018-12-18T16:35:01.111Z,92.91
2018-12-18T16:37:37.054Z,92.22
2018-12-18T16:40:12.903Z,92.79
2018-12-18T16:42:48.632Z,92.74
2018-12-18T16:45:24.292Z,91.94
2018-12-18T16:47:59.936Z,92.77
2018-12-18T16:50:35.840Z,92.51
2018-12-18T16:53:11.516Z,91.74
2018-12-18T16:55:47.097Z,91.19
2018-12-18T16:58:22.909Z,91.42
2018-12-18T17:00:58.580Z,91.80
2018-12-18T17:03:34.290Z,91.96
2018-12-18T17:06:10.115Z,92.10
2018-12-18T17:08:45.868Z,91.70
2018-12-18T17:11:21.654Z,91.68
2018-12-18T17:13:57.313Z,92.42
2018-12-18T17:16:33.006Z,92.00
2018-12-18T17:19:08.649Z,92.27
2018-12-18T17:21:45.269Z,92.22
2018-12-18T17:24:21.156Z,92.65
2018-12-18T17:26:56.864Z,91.98
2018-12-18T17:29:32.613Z,92.77
2018-12-18T17:32:08.387Z,92.22
2018-12-18T17:34:44.229Z,92.22
2018-12-18T17:37:20.125Z,92.13
2018-12-18T17:39:55.782Z,91.72
2018-12-18T17:42:31.481Z,92.36
2018-12-18T17:45:09.039Z,91.40
2018-12-18T17:47:45.357Z,92.03
2018-12-18T17:50:21.079Z,91.10
2018-12-18T17:52:56.756Z,92.15
2018-12-18T17:58:12.772Z,90.99
2018-12-18T18:00:48.470Z,91.44
2018-12-18T18:03:24.189Z,91.31
2018-12-18T18:05:59.969Z,90.70
2018-12-18T18:08:35.732Z,91.23
2018-12-18T18:11:11.494Z,91.91
2018-12-18T18:13:47.367Z,91.62
2018-12-18T18:19:07.184Z,92.06
2018-12-18T18:21:43.010Z,91.60
2018-12-18T18:24:18.705Z,91.30
2018-12-18T18:26:54.614Z,91.28
2018-12-18T18:29:30.360Z,91.36
2018-12-18T18:32:06.478Z,90.66
2018-12-18T18:34:42.339Z,91.25
2018-12-18T18:37:18.086Z,90.33
2018-12-18T18:39:54.579Z,90.77
2018-12-18T18:42:30.185Z,91.11
2018-12-18T18:45:07.329Z,90.72
2018-12-18T18:47:44.415Z,90.77
2018-12-18T18:50:20.767Z,90.13
2018-12-18T18:52:56.464Z,90.48
2018-12-18T18:55:32.089Z,91.38
2018-12-18T18:58:07.917Z,91.33
2018-12-18T19:00:43.683Z,90.80
2018-12-18T19:03:19.435Z,90.68
2018-12-18T19:05:55.223Z,90.68
2018-12-18T19:08:30.947Z,90.58
2018-12-18T19:11:06.851Z,90.76
2018-12-18T19:13:42.578Z,91.58
2018-12-18T19:16:18.513Z,90.86
2018-12-18T19:18:54.301Z,91.62
2018-12-18T19:21:30.071Z,91.79
2018-12-18T19:24:05.797Z,92.02
2018-12-18T19:26:41.643Z,92.07
2018-12-18T19:31:59.040Z,92.29
2018-12-18T19:34:34.746Z,92.35
2018-12-18T19:37:10.562Z,91.38
2018-12-18T19:39:46.707Z,91.88
2018-12-18T19:42:22.734Z,91.85
2018-12-18T19:44:59.212Z,91.78
2018-12-18T19:47:34.945Z,90.82
2018-12-18T19:50:10.917Z,91.14
2018-12-18T19:52:46.991Z,91.92
2018-12-18T19:55:22.716Z,91.53
2018-12-18T19:57:58.485Z,91.62
2018-12-18T20:00:35.734Z,91.53
2018-12-18T20:03:12.185Z,90.84
2018-12-18T20:05:49.072Z,91.05
2018-12-18T20:08:24.695Z,91.22
2018-12-18T20:11:00.294Z,90.30
2018-12-18T20:13:36.105Z,90.35
2018-12-18T20:16:11.957Z,91.05
2018-12-18T20:18:47.644Z,90.26
2018-12-18T20:21:23.384Z,91.32
2018-12-18T20:23:59.782Z,90.92
2018-12-18T20:26:35.629Z,91.24
2018-12-18T20:29:12.064Z,91.09
2018-12-18T20:31:47.793Z,91.68
2018-12-18T20:34:23.402Z,91.14
2018-12-18T20:36:59.093Z,91.27
2018-12-18T20:39:34.761Z,91.15
2018-12-18T20:42:10.531Z,91.50
2018-12-18T20:44:46.267Z,91.69
2018-12-18T20:47:22.314Z,91.09
2018-12-18T20:49:57.902Z,91.66
2018-12-18T20:52:34.162Z,90.75
2018-12-18T20:55:09.837Z,91.83
2018-12-18T20:57:45.485Z,91.67
2018-12-18T21:00:21.297Z,90.35
2018-12-18T21:02:56.980Z,91.59
2018-12-18T21:05:32.790Z,91.32
2018-12-18T21:08:09.054Z,92.05
2018-12-18T21:10:45.215Z,90.93
2018-12-18T21:13:31.010Z,91.07
2018-12-18T21:16:06.704Z,91.01
2018-12-18T21:18:42.466Z,91.95
2018-12-18T21:21:18.239Z,90.54
2018-12-18T21:23:54.247Z,90.96
2018-12-18T21:26:30.408Z,91.89
2018-12-18T21:29:06.253Z,91.50
2018-12-18T21:31:42.244Z,90.99
2018-12-18T21:34:18.182Z,91.88
2018-12-18T21:36:54.023Z,90.96
2018-12-18T21:39:29.846Z,92.12
2018-12-18T21:42:05.727Z,91.90
2018-12-18T21:44:41.521Z,91.50
2018-12-18T21:47:17.356Z,91.06
2018-12-18T21:49:53.237Z,91.33
2018-12-18T21:52:29.002Z,90.40
2018-12-18T21:55:04.985Z,90.96
2018-12-18T21:57:41.100Z,91.42
2018-12-18T22:00:17.064Z,90.23
2018-12-18T22:02:52.959Z,90.40
2018-12-18T22:05:28.783Z,90.57
2018-12-18T22:08:04.593Z,90.62
2018-12-18T22:10:40.500Z,90.91
2018-12-18T22:13:16.142Z,90.83
2018-12-18T22:15:51.878Z,90.59
2018-12-18T22:18:27.601Z,90.65
2018-12-18T22:21:03.517Z,89.93
2018-12-18T22:23:39.224Z,90.17
2018-12-18T22:26:15.201Z,88.96
2018-12-18T22:31:32.236Z,89.42
2018-12-18T22:34:08.323Z,87.78
2018-12-18T22:36:43.955Z,87.08
2018-12-18T22:39:19.694Z,82.63
2018-12-18T22:41:55.488Z,77.32
2018-12-18T22:44:31.053Z,83.14
2018-12-18T22:47:06.833Z,82.92
2018-12-18T22:49:42.794Z,84.04
2018-12-18T22:52:18.436Z,84.28
2018-12-18T22:54:54.232Z,83.40
2018-12-18T22:57:29.992Z,85.15
2018-12-18T23:00:07.983Z,84.08
2018-12-18T23:02:43.732Z,84.77
2018-12-18T23:05:19.443Z,86.36
2018-12-18T23:07:55.415Z,86.30
2018-12-18T23:10:31.179Z,87.69
2018-12-18T23:13:07.105Z,87.49
2018-12-18T23:15:42.681Z,87.91
2018-12-18T23:18:18.378Z,87.73
2018-12-18T23:20:54.160Z,88.67
2018-12-18T23:23:30.623Z,88.10
2018-12-18T23:26:06.253Z,88.75
2018-12-18T23:28:42.030Z,87.62
2018-12-18T23:31:17.606Z,85.59
2018-12-18T23:33:53.271Z,85.35
2018-12-18T23:36:29.017Z,83.99
2018-12-18T23:39:07.797Z,85.17
2018-12-18T23:41:43.572Z,82.54
2018-12-18T23:44:19.172Z,82.22
2018-12-18T23:46:55.143Z,82.76
2018-12-18T23:49:30.901Z,80.26
2018-12-18T23:52:06.648Z,77.47
2018-12-18T23:54:42.343Z,80.83
2018-12-18T23:57:18.017Z,81.95
2018-12-18T23:59:53.687Z,81.23
